sensor_id;sensor_type;location;lat;lon;timestamp;P1;durP1;ratioP1;P2;durP2;ratioP2
65855;SDS011;52631;42.208;24.656;2023-06-19T00:01:51;7.88;;;5.40;;
65855;SDS011;52631;42.208;24.656;2023-06-19T00:04:17;8.55;;;5.53;;
65855;SDS011;52631;42.208;24.656;2023-06-19T00:06:42;9.60;;;5.75;;
65855;SDS011;52631;42.208;24.656;2023-06-19T00:09:08;7.60;;;5.80;;
65855;SDS011;52631;42.208;24.656;2023-06-19T00:11:34;9.18;;;5.97;;
65855;SDS011;52631;42.208;24.656;2023-06-19T00:13:59;9.57;;;6.05;;
65855;SDS011;52631;42.208;24.656;2023-06-19T00:16:26;8.27;;;5.90;;
65855;SDS011;52631;42.208;24.656;2023-06-19T00:18:51;7.68;;;5.82;;
65855;SDS011;52631;42.208;24.656;2023-06-19T00:21:20;8.77;;;6.07;;
65855;SDS011;52631;42.208;24.656;2023-06-19T00:23:48;8.02;;;6.00;;
65855;SDS011;52631;42.208;24.656;2023-06-19T00:26:14;8.48;;;6.10;;
65855;SDS011;52631;42.208;24.656;2023-06-19T00:28:39;10.35;;;6.65;;
65855;SDS011;52631;42.208;24.656;2023-06-19T00:31:08;10.23;;;6.80;;
65855;SDS011;52631;42.208;24.656;2023-06-19T00:33:34;9.70;;;6.30;;
65855;SDS011;52631;42.208;24.656;2023-06-19T00:35:59;9.35;;;6.55;;
65855;SDS011;52631;42.208;24.656;2023-06-19T00:38:26;10.98;;;7.10;;
65855;SDS011;52631;42.208;24.656;2023-06-19T00:40:51;9.20;;;7.03;;
65855;SDS011;52631;42.208;24.656;2023-06-19T00:43:17;11.38;;;6.63;;
65855;SDS011;52631;42.208;24.656;2023-06-19T00:45:42;9.32;;;6.25;;
65855;SDS011;52631;42.208;24.656;2023-06-19T00:48:08;9.32;;;6.28;;
65855;SDS011;52631;42.208;24.656;2023-06-19T00:50:34;10.38;;;6.25;;
65855;SDS011;52631;42.208;24.656;2023-06-19T00:52:59;9.35;;;7.07;;
65855;SDS011;52631;42.208;24.656;2023-06-19T00:55:28;8.80;;;6.00;;
65855;SDS011;52631;42.208;24.656;2023-06-19T00:57:54;8.88;;;6.28;;
65855;SDS011;52631;42.208;24.656;2023-06-19T01:00:20;9.40;;;6.28;;
65855;SDS011;52631;42.208;24.656;2023-06-19T01:02:46;9.77;;;6.18;;
65855;SDS011;52631;42.208;24.656;2023-06-19T01:05:12;7.90;;;5.80;;
65855;SDS011;52631;42.208;24.656;2023-06-19T01:07:56;8.65;;;6.28;;
65855;SDS011;52631;42.208;24.656;2023-06-19T01:10:31;7.78;;;5.97;;
65855;SDS011;52631;42.208;24.656;2023-06-19T01:13:11;8.60;;;6.72;;
65855;SDS011;52631;42.208;24.656;2023-06-19T01:15:38;9.02;;;6.43;;
65855;SDS011;52631;42.208;24.656;2023-06-19T01:18:05;10.15;;;7.22;;
65855;SDS011;52631;42.208;24.656;2023-06-19T01:20:31;9.00;;;7.60;;
65855;SDS011;52631;42.208;24.656;2023-06-19T01:23:04;9.50;;;6.35;;
65855;SDS011;52631;42.208;24.656;2023-06-19T01:25:31;9.38;;;6.95;;
65855;SDS011;52631;42.208;24.656;2023-06-19T01:27:57;10.35;;;6.22;;
65855;SDS011;52631;42.208;24.656;2023-06-19T01:30:22;8.57;;;6.25;;
65855;SDS011;52631;42.208;24.656;2023-06-19T01:32:53;9.55;;;6.55;;
65855;SDS011;52631;42.208;24.656;2023-06-19T01:35:25;9.10;;;6.25;;
65855;SDS011;52631;42.208;24.656;2023-06-19T01:37:53;10.43;;;6.35;;
65855;SDS011;52631;42.208;24.656;2023-06-19T01:40:19;9.35;;;6.70;;
65855;SDS011;52631;42.208;24.656;2023-06-19T01:42:49;9.70;;;6.43;;
65855;SDS011;52631;42.208;24.656;2023-06-19T01:45:16;11.25;;;6.13;;
65855;SDS011;52631;42.208;24.656;2023-06-19T01:47:41;7.85;;;5.82;;
65855;SDS011;52631;42.208;24.656;2023-06-19T01:50:07;9.00;;;6.40;;
65855;SDS011;52631;42.208;24.656;2023-06-19T01:52:33;12.00;;;6.53;;
65855;SDS011;52631;42.208;24.656;2023-06-19T01:54:59;7.80;;;5.80;;
65855;SDS011;52631;42.208;24.656;2023-06-19T01:57:24;9.88;;;5.93;;
65855;SDS011;52631;42.208;24.656;2023-06-19T01:59:50;8.80;;;5.95;;
65855;SDS011;52631;42.208;24.656;2023-06-19T02:02:16;9.27;;;6.25;;
65855;SDS011;52631;42.208;24.656;2023-06-19T02:04:41;8.57;;;6.38;;
65855;SDS011;52631;42.208;24.656;2023-06-19T02:07:06;7.38;;;5.72;;
65855;SDS011;52631;42.208;24.656;2023-06-19T02:09:32;9.77;;;6.53;;
65855;SDS011;52631;42.208;24.656;2023-06-19T02:11:58;8.88;;;6.28;;
65855;SDS011;52631;42.208;24.656;2023-06-19T02:14:23;9.10;;;5.97;;
65855;SDS011;52631;42.208;24.656;2023-06-19T02:16:49;7.60;;;5.38;;
65855;SDS011;52631;42.208;24.656;2023-06-19T02:19:14;7.70;;;5.47;;
65855;SDS011;52631;42.208;24.656;2023-06-19T02:21:40;7.82;;;5.55;;
65855;SDS011;52631;42.208;24.656;2023-06-19T02:24:05;8.80;;;6.00;;
65855;SDS011;52631;42.208;24.656;2023-06-19T02:26:31;8.93;;;6.10;;
65855;SDS011;52631;42.208;24.656;2023-06-19T02:28:56;8.75;;;5.70;;
65855;SDS011;52631;42.208;24.656;2023-06-19T02:31:22;9.35;;;6.20;;
65855;SDS011;52631;42.208;24.656;2023-06-19T02:33:48;10.82;;;6.10;;
65855;SDS011;52631;42.208;24.656;2023-06-19T02:36:14;7.88;;;5.97;;
65855;SDS011;52631;42.208;24.656;2023-06-19T02:38:47;11.98;;;5.95;;
65855;SDS011;52631;42.208;24.656;2023-06-19T02:41:13;9.73;;;5.80;;
65855;SDS011;52631;42.208;24.656;2023-06-19T02:43:42;7.13;;;5.40;;
65855;SDS011;52631;42.208;24.656;2023-06-19T02:46:07;7.88;;;5.93;;
65855;SDS011;52631;42.208;24.656;2023-06-19T02:48:33;8.70;;;5.78;;
65855;SDS011;52631;42.208;24.656;2023-06-19T02:50:58;8.23;;;5.93;;
65855;SDS011;52631;42.208;24.656;2023-06-19T02:53:24;9.02;;;5.45;;
65855;SDS011;52631;42.208;24.656;2023-06-19T02:55:49;13.52;;;6.43;;
65855;SDS011;52631;42.208;24.656;2023-06-19T02:58:15;8.88;;;6.43;;
65855;SDS011;52631;42.208;24.656;2023-06-19T03:00:41;8.55;;;5.38;;
65855;SDS011;52631;42.208;24.656;2023-06-19T03:03:06;8.70;;;6.03;;
65855;SDS011;52631;42.208;24.656;2023-06-19T03:05:32;7.57;;;5.30;;
65855;SDS011;52631;42.208;24.656;2023-06-19T03:07:57;8.25;;;5.65;;
65855;SDS011;52631;42.208;24.656;2023-06-19T03:10:23;10.45;;;5.88;;
65855;SDS011;52631;42.208;24.656;2023-06-19T03:12:48;9.32;;;5.72;;
65855;SDS011;52631;42.208;24.656;2023-06-19T03:15:14;10.07;;;5.95;;
65855;SDS011;52631;42.208;24.656;2023-06-19T03:17:39;7.32;;;5.35;;
65855;SDS011;52631;42.208;24.656;2023-06-19T03:20:05;7.85;;;5.53;;
65855;SDS011;52631;42.208;24.656;2023-06-19T03:22:31;9.13;;;5.75;;
65855;SDS011;52631;42.208;24.656;2023-06-19T03:24:57;7.40;;;5.15;;
65855;SDS011;52631;42.208;24.656;2023-06-19T03:27:22;10.95;;;5.82;;
65855;SDS011;52631;42.208;24.656;2023-06-19T03:29:49;11.68;;;5.53;;
65855;SDS011;52631;42.208;24.656;2023-06-19T03:32:15;8.00;;;5.47;;
65855;SDS011;52631;42.208;24.656;2023-06-19T03:34:41;7.90;;;5.60;;
65855;SDS011;52631;42.208;24.656;2023-06-19T03:37:07;11.68;;;6.07;;
65855;SDS011;52631;42.208;24.656;2023-06-19T03:39:32;9.10;;;5.38;;
65855;SDS011;52631;42.208;24.656;2023-06-19T03:41:58;9.18;;;5.35;;
65855;SDS011;52631;42.208;24.656;2023-06-19T03:44:23;8.68;;;5.13;;
65855;SDS011;52631;42.208;24.656;2023-06-19T03:46:49;7.40;;;5.18;;
65855;SDS011;52631;42.208;24.656;2023-06-19T03:49:15;6.90;;;5.10;;
65855;SDS011;52631;42.208;24.656;2023-06-19T03:51:41;8.88;;;5.53;;
65855;SDS011;52631;42.208;24.656;2023-06-19T03:54:06;11.32;;;5.45;;
65855;SDS011;52631;42.208;24.656;2023-06-19T03:56:32;8.18;;;5.82;;
65855;SDS011;52631;42.208;24.656;2023-06-19T03:58:57;8.57;;;5.72;;
65855;SDS011;52631;42.208;24.656;2023-06-19T04:01:23;7.95;;;5.45;;
65855;SDS011;52631;42.208;24.656;2023-06-19T04:03:49;11.15;;;6.03;;
65855;SDS011;52631;42.208;24.656;2023-06-19T04:06:14;9.40;;;5.65;;
65855;SDS011;52631;42.208;24.656;2023-06-19T04:08:40;9.07;;;6.22;;
65855;SDS011;52631;42.208;24.656;2023-06-19T04:11:05;9.32;;;5.80;;
65855;SDS011;52631;42.208;24.656;2023-06-19T04:13:31;8.70;;;5.18;;
65855;SDS011;52631;42.208;24.656;2023-06-19T04:15:56;8.40;;;5.43;;
65855;SDS011;52631;42.208;24.656;2023-06-19T04:18:22;8.40;;;5.43;;
65855;SDS011;52631;42.208;24.656;2023-06-19T04:20:47;8.60;;;5.70;;
65855;SDS011;52631;42.208;24.656;2023-06-19T04:23:13;9.25;;;5.70;;
65855;SDS011;52631;42.208;24.656;2023-06-19T04:25:38;7.80;;;5.50;;
65855;SDS011;52631;42.208;24.656;2023-06-19T04:28:04;10.65;;;5.70;;
65855;SDS011;52631;42.208;24.656;2023-06-19T04:30:29;8.38;;;4.95;;
65855;SDS011;52631;42.208;24.656;2023-06-19T04:32:56;7.78;;;4.47;;
65855;SDS011;52631;42.208;24.656;2023-06-19T04:35:22;7.47;;;5.05;;
65855;SDS011;52631;42.208;24.656;2023-06-19T04:37:49;7.60;;;4.68;;
65855;SDS011;52631;42.208;24.656;2023-06-19T04:40:14;5.72;;;4.53;;
65855;SDS011;52631;42.208;24.656;2023-06-19T04:42:40;7.47;;;4.90;;
65855;SDS011;52631;42.208;24.656;2023-06-19T04:45:06;7.40;;;4.38;;
65855;SDS011;52631;42.208;24.656;2023-06-19T04:47:32;14.45;;;5.32;;
65855;SDS011;52631;42.208;24.656;2023-06-19T04:49:59;10.73;;;4.60;;
65855;SDS011;52631;42.208;24.656;2023-06-19T04:52:25;12.23;;;5.35;;
65855;SDS011;52631;42.208;24.656;2023-06-19T04:54:50;8.07;;;4.20;;
65855;SDS011;52631;42.208;24.656;2023-06-19T04:57:16;8.55;;;4.65;;
65855;SDS011;52631;42.208;24.656;2023-06-19T04:59:42;6.25;;;4.47;;
65855;SDS011;52631;42.208;24.656;2023-06-19T05:02:09;8.43;;;4.78;;
65855;SDS011;52631;42.208;24.656;2023-06-19T05:04:35;9.43;;;5.18;;
65855;SDS011;52631;42.208;24.656;2023-06-19T05:07:01;10.25;;;4.88;;
65855;SDS011;52631;42.208;24.656;2023-06-19T05:09:26;9.20;;;4.70;;
65855;SDS011;52631;42.208;24.656;2023-06-19T05:11:52;6.68;;;4.32;;
65855;SDS011;52631;42.208;24.656;2023-06-19T05:14:17;8.43;;;4.47;;
65855;SDS011;52631;42.208;24.656;2023-06-19T05:16:43;7.10;;;4.68;;
65855;SDS011;52631;42.208;24.656;2023-06-19T05:19:08;7.32;;;4.47;;
65855;SDS011;52631;42.208;24.656;2023-06-19T05:21:34;6.88;;;4.20;;
65855;SDS011;52631;42.208;24.656;2023-06-19T05:23:59;6.03;;;4.00;;
65855;SDS011;52631;42.208;24.656;2023-06-19T05:26:25;7.13;;;4.25;;
65855;SDS011;52631;42.208;24.656;2023-06-19T05:28:51;6.13;;;4.32;;
65855;SDS011;52631;42.208;24.656;2023-06-19T05:31:16;6.20;;;4.40;;
65855;SDS011;52631;42.208;24.656;2023-06-19T05:33:43;7.75;;;4.10;;
65855;SDS011;52631;42.208;24.656;2023-06-19T05:36:09;5.50;;;3.95;;
65855;SDS011;52631;42.208;24.656;2023-06-19T05:38:34;6.68;;;3.78;;
65855;SDS011;52631;42.208;24.656;2023-06-19T05:41:00;5.88;;;3.92;;
65855;SDS011;52631;42.208;24.656;2023-06-19T05:43:26;7.55;;;4.18;;
65855;SDS011;52631;42.208;24.656;2023-06-19T05:45:55;6.20;;;4.22;;
65855;SDS011;52631;42.208;24.656;2023-06-19T05:48:27;7.53;;;4.22;;
65855;SDS011;52631;42.208;24.656;2023-06-19T05:50:53;5.85;;;3.80;;
65855;SDS011;52631;42.208;24.656;2023-06-19T05:53:18;6.15;;;4.18;;
65855;SDS011;52631;42.208;24.656;2023-06-19T05:55:44;5.93;;;3.83;;
65855;SDS011;52631;42.208;24.656;2023-06-19T05:58:09;6.07;;;4.20;;
65855;SDS011;52631;42.208;24.656;2023-06-19T06:00:35;6.80;;;4.05;;
65855;SDS011;52631;42.208;24.656;2023-06-19T06:03:01;6.60;;;3.72;;
65855;SDS011;52631;42.208;24.656;2023-06-19T06:05:27;7.25;;;4.20;;
65855;SDS011;52631;42.208;24.656;2023-06-19T06:07:53;4.80;;;3.33;;
65855;SDS011;52631;42.208;24.656;2023-06-19T06:10:19;7.72;;;4.03;;
65855;SDS011;52631;42.208;24.656;2023-06-19T06:12:45;6.82;;;3.88;;
65855;SDS011;52631;42.208;24.656;2023-06-19T06:15:11;4.93;;;3.55;;
65855;SDS011;52631;42.208;24.656;2023-06-19T06:17:36;8.45;;;4.00;;
65855;SDS011;52631;42.208;24.656;2023-06-19T06:20:02;6.05;;;3.60;;
65855;SDS011;52631;42.208;24.656;2023-06-19T06:22:32;5.63;;;3.88;;
65855;SDS011;52631;42.208;24.656;2023-06-19T06:24:58;6.25;;;3.75;;
65855;SDS011;52631;42.208;24.656;2023-06-19T06:27:23;6.10;;;3.90;;
65855;SDS011;52631;42.208;24.656;2023-06-19T06:29:49;6.78;;;3.60;;
65855;SDS011;52631;42.208;24.656;2023-06-19T06:32:15;5.72;;;3.90;;
65855;SDS011;52631;42.208;24.656;2023-06-19T06:34:40;7.25;;;4.47;;
65855;SDS011;52631;42.208;24.656;2023-06-19T06:37:06;5.03;;;3.53;;
65855;SDS011;52631;42.208;24.656;2023-06-19T06:39:31;5.80;;;3.58;;
65855;SDS011;52631;42.208;24.656;2023-06-19T06:41:57;5.85;;;3.90;;
65855;SDS011;52631;42.208;24.656;2023-06-19T06:44:22;6.47;;;3.92;;
65855;SDS011;52631;42.208;24.656;2023-06-19T06:46:48;6.88;;;4.05;;
65855;SDS011;52631;42.208;24.656;2023-06-19T06:49:13;4.57;;;3.08;;
65855;SDS011;52631;42.208;24.656;2023-06-19T06:51:41;7.75;;;4.05;;
65855;SDS011;52631;42.208;24.656;2023-06-19T06:54:06;6.40;;;4.32;;
65855;SDS011;52631;42.208;24.656;2023-06-19T06:56:32;6.13;;;4.05;;
65855;SDS011;52631;42.208;24.656;2023-06-19T06:58:57;5.82;;;3.65;;
65855;SDS011;52631;42.208;24.656;2023-06-19T07:01:23;6.88;;;3.63;;
65855;SDS011;52631;42.208;24.656;2023-06-19T07:03:49;5.65;;;3.90;;
65855;SDS011;52631;42.208;24.656;2023-06-19T07:06:14;7.00;;;3.85;;
65855;SDS011;52631;42.208;24.656;2023-06-19T07:08:40;6.88;;;3.70;;
65855;SDS011;52631;42.208;24.656;2023-06-19T07:11:06;4.68;;;3.60;;
65855;SDS011;52631;42.208;24.656;2023-06-19T07:13:32;6.63;;;3.65;;
65855;SDS011;52631;42.208;24.656;2023-06-19T07:15:57;7.22;;;3.60;;
65855;SDS011;52631;42.208;24.656;2023-06-19T07:18:24;8.13;;;4.15;;
65855;SDS011;52631;42.208;24.656;2023-06-19T07:20:49;7.18;;;3.72;;
65855;SDS011;52631;42.208;24.656;2023-06-19T07:23:15;6.13;;;3.72;;
65855;SDS011;52631;42.208;24.656;2023-06-19T07:25:40;6.93;;;4.03;;
65855;SDS011;52631;42.208;24.656;2023-06-19T07:28:06;4.97;;;3.80;;
65855;SDS011;52631;42.208;24.656;2023-06-19T07:30:31;6.45;;;3.85;;
65855;SDS011;52631;42.208;24.656;2023-06-19T07:32:57;6.35;;;3.95;;
65855;SDS011;52631;42.208;24.656;2023-06-19T07:35:22;6.40;;;4.00;;
65855;SDS011;52631;42.208;24.656;2023-06-19T07:37:48;5.47;;;3.88;;
65855;SDS011;52631;42.208;24.656;2023-06-19T07:40:14;6.13;;;3.80;;
65855;SDS011;52631;42.208;24.656;2023-06-19T07:42:39;7.07;;;4.20;;
65855;SDS011;52631;42.208;24.656;2023-06-19T07:45:05;5.53;;;4.03;;
65855;SDS011;52631;42.208;24.656;2023-06-19T07:47:30;5.65;;;4.07;;
65855;SDS011;52631;42.208;24.656;2023-06-19T07:49:56;5.80;;;3.88;;
65855;SDS011;52631;42.208;24.656;2023-06-19T07:52:21;5.47;;;4.07;;
65855;SDS011;52631;42.208;24.656;2023-06-19T07:54:56;5.95;;;4.22;;
65855;SDS011;52631;42.208;24.656;2023-06-19T07:57:23;5.88;;;3.80;;
65855;SDS011;52631;42.208;24.656;2023-06-19T07:59:50;6.03;;;4.10;;
65855;SDS011;52631;42.208;24.656;2023-06-19T08:02:16;6.25;;;3.97;;
65855;SDS011;52631;42.208;24.656;2023-06-19T08:04:42;6.20;;;4.18;;
65855;SDS011;52631;42.208;24.656;2023-06-19T08:07:07;5.63;;;3.97;;
65855;SDS011;52631;42.208;24.656;2023-06-19T08:09:33;5.50;;;3.70;;
65855;SDS011;52631;42.208;24.656;2023-06-19T08:11:58;5.22;;;4.18;;
65855;SDS011;52631;42.208;24.656;2023-06-19T08:14:24;5.88;;;4.15;;
65855;SDS011;52631;42.208;24.656;2023-06-19T08:16:49;5.20;;;4.07;;
65855;SDS011;52631;42.208;24.656;2023-06-19T08:19:15;8.27;;;4.20;;
65855;SDS011;52631;42.208;24.656;2023-06-19T08:21:40;5.68;;;4.07;;
65855;SDS011;52631;42.208;24.656;2023-06-19T08:24:06;6.53;;;3.88;;
65855;SDS011;52631;42.208;24.656;2023-06-19T08:26:31;6.43;;;3.83;;
65855;SDS011;52631;42.208;24.656;2023-06-19T08:28:57;5.55;;;3.90;;
65855;SDS011;52631;42.208;24.656;2023-06-19T08:31:22;5.65;;;4.13;;
65855;SDS011;52631;42.208;24.656;2023-06-19T08:33:52;5.50;;;4.10;;
65855;SDS011;52631;42.208;24.656;2023-06-19T08:36:18;5.05;;;3.53;;
65855;SDS011;52631;42.208;24.656;2023-06-19T08:38:44;6.95;;;4.15;;
65855;SDS011;52631;42.208;24.656;2023-06-19T08:41:09;5.40;;;4.07;;
65855;SDS011;52631;42.208;24.656;2023-06-19T08:43:35;5.43;;;3.75;;
65855;SDS011;52631;42.208;24.656;2023-06-19T08:46:09;6.50;;;4.05;;
65855;SDS011;52631;42.208;24.656;2023-06-19T08:48:36;5.82;;;4.30;;
65855;SDS011;52631;42.208;24.656;2023-06-19T08:51:02;5.63;;;4.18;;
65855;SDS011;52631;42.208;24.656;2023-06-19T08:53:29;5.28;;;4.20;;
65855;SDS011;52631;42.208;24.656;2023-06-19T08:55:57;7.70;;;4.22;;
65855;SDS011;52631;42.208;24.656;2023-06-19T08:58:23;5.50;;;3.65;;
65855;SDS011;52631;42.208;24.656;2023-06-19T09:00:49;5.35;;;3.70;;
65855;SDS011;52631;42.208;24.656;2023-06-19T09:03:18;5.45;;;3.90;;
65855;SDS011;52631;42.208;24.656;2023-06-19T09:05:45;5.50;;;4.13;;
65855;SDS011;52631;42.208;24.656;2023-06-19T09:08:14;7.20;;;4.05;;
65855;SDS011;52631;42.208;24.656;2023-06-19T09:10:54;6.18;;;3.95;;
65855;SDS011;52631;42.208;24.656;2023-06-19T09:13:20;5.78;;;4.10;;
65855;SDS011;52631;42.208;24.656;2023-06-19T09:15:46;6.68;;;3.65;;
65855;SDS011;52631;42.208;24.656;2023-06-19T09:18:11;5.88;;;3.92;;
65855;SDS011;52631;42.208;24.656;2023-06-19T09:20:38;6.45;;;3.20;;
65855;SDS011;52631;42.208;24.656;2023-06-19T09:23:14;6.25;;;3.50;;
65855;SDS011;52631;42.208;24.656;2023-06-19T09:25:52;4.75;;;3.42;;
65855;SDS011;52631;42.208;24.656;2023-06-19T09:28:20;4.82;;;3.35;;
65855;SDS011;52631;42.208;24.656;2023-06-19T09:30:57;4.78;;;3.58;;
65855;SDS011;52631;42.208;24.656;2023-06-19T09:33:25;6.30;;;3.80;;
65855;SDS011;52631;42.208;24.656;2023-06-19T09:35:51;6.60;;;3.42;;
65855;SDS011;52631;42.208;24.656;2023-06-19T09:38:18;7.03;;;3.80;;
65855;SDS011;52631;42.208;24.656;2023-06-19T09:40:47;4.50;;;3.42;;
65855;SDS011;52631;42.208;24.656;2023-06-19T09:43:13;5.68;;;3.70;;
65855;SDS011;52631;42.208;24.656;2023-06-19T09:45:42;6.45;;;4.13;;
65855;SDS011;52631;42.208;24.656;2023-06-19T09:48:08;5.47;;;3.70;;
65855;SDS011;52631;42.208;24.656;2023-06-19T09:50:38;5.05;;;3.45;;
65855;SDS011;52631;42.208;24.656;2023-06-19T09:53:05;5.80;;;3.30;;
65855;SDS011;52631;42.208;24.656;2023-06-19T09:55:30;5.00;;;3.53;;
65855;SDS011;52631;42.208;24.656;2023-06-19T09:57:56;5.75;;;3.60;;
65855;SDS011;52631;42.208;24.656;2023-06-19T10:00:22;6.70;;;3.80;;
65855;SDS011;52631;42.208;24.656;2023-06-19T10:02:51;4.90;;;3.50;;
65855;SDS011;52631;42.208;24.656;2023-06-19T10:05:17;6.75;;;4.00;;
65855;SDS011;52631;42.208;24.656;2023-06-19T10:07:53;8.18;;;4.18;;
65855;SDS011;52631;42.208;24.656;2023-06-19T10:10:25;5.68;;;3.90;;
65855;SDS011;52631;42.208;24.656;2023-06-19T10:12:53;5.00;;;3.17;;
65855;SDS011;52631;42.208;24.656;2023-06-19T10:15:27;5.40;;;3.60;;
65855;SDS011;52631;42.208;24.656;2023-06-19T10:17:58;5.80;;;3.83;;
65855;SDS011;52631;42.208;24.656;2023-06-19T10:20:29;5.40;;;3.90;;
65855;SDS011;52631;42.208;24.656;2023-06-19T10:25:29;6.13;;;3.83;;
65855;SDS011;52631;42.208;24.656;2023-06-19T10:27:57;4.95;;;3.47;;
65855;SDS011;52631;42.208;24.656;2023-06-19T10:30:23;7.13;;;3.72;;
65855;SDS011;52631;42.208;24.656;2023-06-19T10:32:48;8.18;;;3.75;;
65855;SDS011;52631;42.208;24.656;2023-06-19T10:35:15;4.90;;;3.92;;
65855;SDS011;52631;42.208;24.656;2023-06-19T10:37:41;7.97;;;3.80;;
65855;SDS011;52631;42.208;24.656;2023-06-19T10:40:08;6.10;;;3.42;;
65855;SDS011;52631;42.208;24.656;2023-06-19T10:42:38;4.28;;;3.40;;
65855;SDS011;52631;42.208;24.656;2023-06-19T10:45:04;5.68;;;3.90;;
65855;SDS011;52631;42.208;24.656;2023-06-19T10:47:32;4.78;;;3.47;;
65855;SDS011;52631;42.208;24.656;2023-06-19T10:49:58;6.05;;;3.38;;
65855;SDS011;52631;42.208;24.656;2023-06-19T10:52:23;4.95;;;3.80;;
65855;SDS011;52631;42.208;24.656;2023-06-19T10:54:53;6.43;;;3.67;;
65855;SDS011;52631;42.208;24.656;2023-06-19T10:57:28;5.63;;;3.50;;
65855;SDS011;52631;42.208;24.656;2023-06-19T10:59:54;7.57;;;3.72;;
65855;SDS011;52631;42.208;24.656;2023-06-19T11:02:20;6.10;;;3.60;;
65855;SDS011;52631;42.208;24.656;2023-06-19T11:04:46;5.15;;;3.95;;
65855;SDS011;52631;42.208;24.656;2023-06-19T11:07:12;5.10;;;3.78;;
65855;SDS011;52631;42.208;24.656;2023-06-19T11:09:38;5.13;;;3.53;;
65855;SDS011;52631;42.208;24.656;2023-06-19T11:12:03;4.78;;;3.42;;
65855;SDS011;52631;42.208;24.656;2023-06-19T11:14:32;5.95;;;4.38;;
65855;SDS011;52631;42.208;24.656;2023-06-19T11:17:04;6.88;;;3.70;;
65855;SDS011;52631;42.208;24.656;2023-06-19T11:19:30;6.55;;;3.67;;
65855;SDS011;52631;42.208;24.656;2023-06-19T11:21:56;6.35;;;3.65;;
65855;SDS011;52631;42.208;24.656;2023-06-19T11:24:22;7.13;;;4.10;;
65855;SDS011;52631;42.208;24.656;2023-06-19T11:26:49;5.13;;;3.80;;
65855;SDS011;52631;42.208;24.656;2023-06-19T11:32:04;6.07;;;3.88;;
65855;SDS011;52631;42.208;24.656;2023-06-19T11:34:33;5.32;;;3.58;;
65855;SDS011;52631;42.208;24.656;2023-06-19T11:37:01;15.55;;;4.30;;
65855;SDS011;52631;42.208;24.656;2023-06-19T11:39:43;5.43;;;3.90;;
65855;SDS011;52631;42.208;24.656;2023-06-19T11:42:10;5.55;;;3.63;;
65855;SDS011;52631;42.208;24.656;2023-06-19T11:44:35;4.78;;;3.45;;
65855;SDS011;52631;42.208;24.656;2023-06-19T11:47:00;6.75;;;3.20;;
65855;SDS011;52631;42.208;24.656;2023-06-19T11:49:28;5.97;;;3.30;;
65855;SDS011;52631;42.208;24.656;2023-06-19T11:52:00;5.35;;;3.22;;
65855;SDS011;52631;42.208;24.656;2023-06-19T11:54:25;5.45;;;3.53;;
65855;SDS011;52631;42.208;24.656;2023-06-19T11:56:51;5.43;;;3.20;;
65855;SDS011;52631;42.208;24.656;2023-06-19T11:59:16;4.63;;;3.20;;
65855;SDS011;52631;42.208;24.656;2023-06-19T12:01:42;6.43;;;3.42;;
65855;SDS011;52631;42.208;24.656;2023-06-19T12:04:07;5.68;;;3.20;;
65855;SDS011;52631;42.208;24.656;2023-06-19T12:06:33;5.38;;;3.38;;
65855;SDS011;52631;42.208;24.656;2023-06-19T12:09:00;5.85;;;3.10;;
65855;SDS011;52631;42.208;24.656;2023-06-19T12:11:26;5.70;;;3.28;;
65855;SDS011;52631;42.208;24.656;2023-06-19T12:13:52;8.57;;;3.08;;
65855;SDS011;52631;42.208;24.656;2023-06-19T12:16:22;4.47;;;3.30;;
65855;SDS011;52631;42.208;24.656;2023-06-19T12:18:48;6.38;;;3.05;;
65855;SDS011;52631;42.208;24.656;2023-06-19T12:21:14;4.80;;;3.08;;
65855;SDS011;52631;42.208;24.656;2023-06-19T12:23:39;4.45;;;2.92;;
65855;SDS011;52631;42.208;24.656;2023-06-19T12:26:04;4.40;;;3.17;;
65855;SDS011;52631;42.208;24.656;2023-06-19T12:28:30;5.68;;;3.60;;
65855;SDS011;52631;42.208;24.656;2023-06-19T12:30:55;4.85;;;3.13;;
65855;SDS011;52631;42.208;24.656;2023-06-19T12:33:21;5.82;;;2.97;;
65855;SDS011;52631;42.208;24.656;2023-06-19T12:35:47;6.00;;;3.00;;
65855;SDS011;52631;42.208;24.656;2023-06-19T12:38:12;4.45;;;3.35;;
65855;SDS011;52631;42.208;24.656;2023-06-19T12:40:38;4.20;;;3.20;;
65855;SDS011;52631;42.208;24.656;2023-06-19T12:43:04;4.50;;;3.40;;
65855;SDS011;52631;42.208;24.656;2023-06-19T12:45:29;4.22;;;3.03;;
65855;SDS011;52631;42.208;24.656;2023-06-19T12:47:55;4.82;;;3.00;;
65855;SDS011;52631;42.208;24.656;2023-06-19T12:50:20;4.63;;;2.80;;
65855;SDS011;52631;42.208;24.656;2023-06-19T12:52:45;5.78;;;3.10;;
65855;SDS011;52631;42.208;24.656;2023-06-19T12:55:11;5.13;;;2.85;;
65855;SDS011;52631;42.208;24.656;2023-06-19T12:57:37;5.50;;;3.15;;
65855;SDS011;52631;42.208;24.656;2023-06-19T13:00:02;4.13;;;2.63;;
65855;SDS011;52631;42.208;24.656;2023-06-19T13:02:33;5.47;;;2.83;;
65855;SDS011;52631;42.208;24.656;2023-06-19T13:04:59;4.47;;;3.05;;
65855;SDS011;52631;42.208;24.656;2023-06-19T13:07:24;4.47;;;3.00;;
65855;SDS011;52631;42.208;24.656;2023-06-19T13:09:49;6.97;;;3.20;;
65855;SDS011;52631;42.208;24.656;2023-06-19T13:12:15;5.63;;;3.53;;
65855;SDS011;52631;42.208;24.656;2023-06-19T13:14:41;7.00;;;3.90;;
65855;SDS011;52631;42.208;24.656;2023-06-19T13:17:07;5.35;;;3.28;;
65855;SDS011;52631;42.208;24.656;2023-06-19T13:19:32;5.38;;;2.92;;
65855;SDS011;52631;42.208;24.656;2023-06-19T13:21:58;5.38;;;3.58;;
65855;SDS011;52631;42.208;24.656;2023-06-19T13:24:23;95.65;;;11.98;;
65855;SDS011;52631;42.208;24.656;2023-06-19T13:26:51;7.10;;;4.45;;
65855;SDS011;52631;42.208;24.656;2023-06-19T13:29:16;5.00;;;4.05;;
65855;SDS011;52631;42.208;24.656;2023-06-19T13:31:42;5.03;;;3.88;;
65855;SDS011;52631;42.208;24.656;2023-06-19T13:34:07;5.00;;;3.85;;
65855;SDS011;52631;42.208;24.656;2023-06-19T13:36:33;5.28;;;4.00;;
65855;SDS011;52631;42.208;24.656;2023-06-19T13:38:58;6.70;;;3.80;;
65855;SDS011;52631;42.208;24.656;2023-06-19T13:41:24;5.30;;;3.97;;
65855;SDS011;52631;42.208;24.656;2023-06-19T13:43:50;6.55;;;3.85;;
65855;SDS011;52631;42.208;24.656;2023-06-19T13:46:16;7.32;;;4.03;;
65855;SDS011;52631;42.208;24.656;2023-06-19T13:48:42;6.60;;;4.28;;
65855;SDS011;52631;42.208;24.656;2023-06-19T13:51:07;5.85;;;4.30;;
65855;SDS011;52631;42.208;24.656;2023-06-19T13:53:33;7.63;;;4.13;;
65855;SDS011;52631;42.208;24.656;2023-06-19T13:55:58;5.63;;;4.20;;
65855;SDS011;52631;42.208;24.656;2023-06-19T13:58:24;7.75;;;4.13;;
65855;SDS011;52631;42.208;24.656;2023-06-19T14:00:49;5.78;;;4.30;;
65855;SDS011;52631;42.208;24.656;2023-06-19T14:03:15;5.72;;;4.20;;
65855;SDS011;52631;42.208;24.656;2023-06-19T14:05:41;6.65;;;4.35;;
65855;SDS011;52631;42.208;24.656;2023-06-19T14:08:06;6.75;;;4.20;;
65855;SDS011;52631;42.208;24.656;2023-06-19T14:10:33;6.05;;;4.07;;
65855;SDS011;52631;42.208;24.656;2023-06-19T14:12:58;9.23;;;4.47;;
65855;SDS011;52631;42.208;24.656;2023-06-19T14:15:23;6.78;;;4.43;;
65855;SDS011;52631;42.208;24.656;2023-06-19T14:17:49;7.85;;;4.20;;
65855;SDS011;52631;42.208;24.656;2023-06-19T14:20:14;5.57;;;4.18;;
65855;SDS011;52631;42.208;24.656;2023-06-19T14:22:40;6.97;;;4.13;;
65855;SDS011;52631;42.208;24.656;2023-06-19T14:25:05;7.45;;;4.50;;
65855;SDS011;52631;42.208;24.656;2023-06-19T14:27:31;6.38;;;4.13;;
65855;SDS011;52631;42.208;24.656;2023-06-19T14:29:56;6.55;;;4.07;;
65855;SDS011;52631;42.208;24.656;2023-06-19T14:32:22;5.30;;;3.83;;
65855;SDS011;52631;42.208;24.656;2023-06-19T14:34:51;5.72;;;4.20;;